createdAt,value
2023-04-01T00:03:34.458Z,60.54
2023-04-01T00:08:38.215Z,61.04
2023-04-01T00:13:43.501Z,60.45
2023-04-01T00:18:48.288Z,61.23
2023-04-01T00:23:52.630Z,60.91
2023-04-01T00:28:57.855Z,62.21
2023-04-01T00:34:01.431Z,61.65
2023-04-01T00:39:05.055Z,61.93
2023-04-01T00:44:21.409Z,60.98
2023-04-01T00:49:28.965Z,61.96
2023-04-01T00:54:33.326Z,62.37
2023-04-01T00:59:43.418Z,62.16
2023-04-01T01:04:47.488Z,61.93
2023-04-01T01:10:03.453Z,61.61
2023-04-01T01:15:15.975Z,61.43
2023-04-01T01:20:54.147Z,60.81
2023-04-01T01:26:25.632Z,61.69
2023-04-01T01:31:36.455Z,61.14
2023-04-01T01:36:46.128Z,61.18
2023-04-01T01:41:51.230Z,61.67
2023-04-01T01:46:54.787Z,61.96
2023-04-01T01:52:00.927Z,61.39
2023-04-01T01:57:08.979Z,63.47
2023-04-01T02:02:15.967Z,63.82
2023-04-01T02:07:26.183Z,64.04
2023-04-01T02:12:31.186Z,63.52
2023-04-01T02:17:37.978Z,64.03
2023-04-01T02:22:49.081Z,63.81
2023-04-01T02:27:53.358Z,63.15
2023-04-01T02:32:57.862Z,63.37
2023-04-01T02:38:03.474Z,62.83
2023-04-01T02:43:07.007Z,62.24
2023-04-01T02:48:10.829Z,62.49
2023-04-01T02:53:15.981Z,62.40
2023-04-01T02:58:19.746Z,62.19
2023-04-01T03:03:23.402Z,62.11
2023-04-01T03:08:28.269Z,61.21
2023-04-01T03:13:32.001Z,61.46
2023-04-01T03:18:36.148Z,61.06
2023-04-01T03:23:40.929Z,60.90
2023-04-01T03:28:44.406Z,60.72
2023-04-01T03:33:47.898Z,60.95
2023-04-01T03:38:53.013Z,60.74
2023-04-01T03:44:03.210Z,61.11
2023-04-01T03:49:12.352Z,61.02
2023-04-01T03:54:18.196Z,60.38
2023-04-01T03:59:21.807Z,60.31
2023-04-01T04:04:27.078Z,60.25
2023-04-01T04:09:34.380Z,60.09
2023-04-01T04:14:37.952Z,59.90
2023-04-01T04:19:42.145Z,59.58
2023-04-01T04:24:47.777Z,59.60
2023-04-01T04:29:51.392Z,59.61
2023-04-01T04:34:54.937Z,59.57
2023-04-01T04:39:59.717Z,59.66
2023-04-01T04:45:03.314Z,59.87
2023-04-01T04:50:09.000Z,60.15
2023-04-01T04:55:16.794Z,60.20
2023-04-01T05:00:24.146Z,60.10
2023-04-01T05:05:36.995Z,60.55
2023-04-01T05:10:42.968Z,60.41
2023-04-01T05:15:47.658Z,60.92
2023-04-01T05:20:53.952Z,61.58
2023-04-01T05:25:58.850Z,61.59
2023-04-01T05:31:07.073Z,61.55
2023-04-01T05:36:18.319Z,61.56
2023-04-01T05:41:23.270Z,62.19
2023-04-01T05:46:26.854Z,62.05
2023-04-01T05:51:50.607Z,62.24
2023-04-01T05:56:56.059Z,62.53
2023-04-01T06:02:00.191Z,61.75
2023-04-01T06:07:12.908Z,61.71
2023-04-01T06:12:35.461Z,60.48
2023-04-01T06:17:54.590Z,60.42
2023-04-01T06:23:17.284Z,60.33
2023-04-01T06:28:47.526Z,59.65
2023-04-01T06:34:03.823Z,60.42
2023-04-01T06:39:23.593Z,60.41
2023-04-01T06:44:40.591Z,59.55
2023-04-01T06:50:13.759Z,60.88
2023-04-01T06:55:55.313Z,60.45
2023-04-01T07:01:36.712Z,61.26
2023-04-01T07:06:44.959Z,61.49
2023-04-01T07:11:50.563Z,62.63
2023-04-01T07:17:22.234Z,61.56
2023-04-01T07:22:32.256Z,61.75
2023-04-01T07:27:55.412Z,61.60
2023-04-01T07:33:06.730Z,61.80
2023-04-01T07:38:23.305Z,61.95
2023-04-01T07:43:42.725Z,61.72
2023-04-01T07:49:08.682Z,61.79
2023-04-01T07:54:21.047Z,61.81
2023-04-01T07:59:32.940Z,62.56
2023-04-01T08:04:51.624Z,62.02
2023-04-01T08:10:05.166Z,62.01
2023-04-01T08:15:51.955Z,62.66
2023-04-01T08:21:16.443Z,63.24
2023-04-01T08:26:32.879Z,63.13
2023-04-01T08:31:43.055Z,63.08
2023-04-01T08:36:54.663Z,64.99
2023-04-01T08:42:33.916Z,64.31
2023-04-01T08:47:56.848Z,64.84
2023-04-01T08:53:09.072Z,64.93
2023-04-01T08:58:47.852Z,63.67
2023-04-01T09:04:18.501Z,65.08
2023-04-01T09:09:42.030Z,64.38
2023-04-01T09:15:14.363Z,64.03
2023-04-01T09:20:47.089Z,65.03
2023-04-01T09:26:05.399Z,64.47
2023-04-01T09:31:24.973Z,63.65
2023-04-01T09:36:49.255Z,62.20
2023-04-01T09:42:19.529Z,61.85
2023-04-01T09:47:50.897Z,60.82
2023-04-01T09:53:03.024Z,60.69
2023-04-01T09:58:46.015Z,60.65
2023-04-01T10:05:21.416Z,60.16
2023-04-01T10:11:01.022Z,59.16
2023-04-01T10:16:32.750Z,59.62
2023-04-01T10:22:02.918Z,59.65
2023-04-01T10:27:43.914Z,59.61
2023-04-01T10:33:37.679Z,60.14
2023-04-01T10:39:06.119Z,59.81
2023-04-01T10:44:48.286Z,60.55
2023-04-01T10:50:26.204Z,60.30
2023-04-01T10:56:10.154Z,59.92
2023-04-01T11:02:19.566Z,59.18
2023-04-01T11:08:13.445Z,58.75
2023-04-01T11:14:07.031Z,58.30
2023-04-01T11:19:46.732Z,58.52
2023-04-01T11:25:20.034Z,57.63
2023-04-01T11:30:59.893Z,57.54
2023-04-01T11:36:23.234Z,57.36
2023-04-01T11:41:40.149Z,57.29
2023-04-01T11:47:42.127Z,56.21
2023-04-01T11:52:59.525Z,58.30
2023-04-01T11:58:31.187Z,56.98
2023-04-01T12:04:05.891Z,57.31
2023-04-01T12:09:21.178Z,56.94
2023-04-01T12:14:35.089Z,57.25
2023-04-01T12:19:50.454Z,57.82
2023-04-01T12:25:03.076Z,57.33
2023-04-01T12:30:38.787Z,55.85
2023-04-01T12:35:57.460Z,55.21
2023-04-01T12:41:20.209Z,55.33
2023-04-01T12:46:34.241Z,55.33
2023-04-01T12:51:52.724Z,54.58
2023-04-01T12:57:09.260Z,55.62
2023-04-01T13:02:25.268Z,57.16
2023-04-01T13:07:48.996Z,55.64
2023-04-01T13:13:34.259Z,56.11
2023-04-01T13:18:50.760Z,56.44
2023-04-01T13:24:05.071Z,56.56
2023-04-01T13:29:18.878Z,57.03
2023-04-01T13:34:35.960Z,57.23
2023-04-01T13:39:50.105Z,57.52
2023-04-01T13:44:58.857Z,58.38
2023-04-01T13:50:28.499Z,56.96
2023-04-01T13:55:51.867Z,57.01
2023-04-01T14:01:07.880Z,57.54
2023-04-01T14:06:22.945Z,57.33
2023-04-01T14:11:39.430Z,56.72
2023-04-01T14:17:09.953Z,57.14
2023-04-01T14:22:27.364Z,57.26
2023-04-01T14:27:48.038Z,57.42
2023-04-01T14:32:54.683Z,56.85
2023-04-01T14:38:12.205Z,58.08
2023-04-01T14:43:45.001Z,58.11
2023-04-01T14:48:55.982Z,58.16
2023-04-01T14:54:08.247Z,57.57
2023-04-01T14:59:16.555Z,57.61
2023-04-01T15:04:51.410Z,57.07
2023-04-01T15:10:09.144Z,58.17
2023-04-01T15:15:26.071Z,58.43
2023-04-01T15:20:57.578Z,57.30
2023-04-01T15:26:25.980Z,57.52
2023-04-01T15:31:35.747Z,57.89
2023-04-01T15:36:45.431Z,56.83
2023-04-01T15:42:11.762Z,57.09
2023-04-01T15:47:35.805Z,57.31
2023-04-01T15:52:47.086Z,56.84
2023-04-01T15:58:08.802Z,56.35
2023-04-01T16:03:21.704Z,55.73
2023-04-01T16:08:54.277Z,56.30
2023-04-01T16:14:13.294Z,56.56
2023-04-01T16:19:54.571Z,56.19
2023-04-01T16:25:16.632Z,56.36
2023-04-01T16:30:37.284Z,55.80
2023-04-01T16:35:48.533Z,56.10
2023-04-01T16:41:09.250Z,55.98
2023-04-01T16:46:36.394Z,56.52
2023-04-01T16:51:48.100Z,57.03
2023-04-01T16:56:55.990Z,57.02
2023-04-01T17:02:11.481Z,56.80
2023-04-01T17:07:27.065Z,57.55
2023-04-01T17:12:39.121Z,57.19
2023-04-01T17:17:50.663Z,57.81
2023-04-01T17:23:00.031Z,57.42
2023-04-01T17:28:17.478Z,57.63
2023-04-01T17:33:47.126Z,57.87
2023-04-01T17:39:04.152Z,57.16
2023-04-01T17:44:24.336Z,57.32
2023-04-01T17:49:39.619Z,58.40
2023-04-01T17:54:48.911Z,59.22
2023-04-01T18:00:02.440Z,59.07
2023-04-01T18:05:32.830Z,58.58
2023-04-01T18:10:43.838Z,57.92
2023-04-01T18:15:52.162Z,58.59
2023-04-01T18:21:06.482Z,58.37
2023-04-01T18:26:15.173Z,58.28
2023-04-01T18:31:21.377Z,58.24
2023-04-01T18:36:37.941Z,58.22
2023-04-01T18:41:53.903Z,58.43
2023-04-01T18:47:07.404Z,58.38
2023-04-01T18:52:22.945Z,58.51
2023-04-01T18:57:28.501Z,59.17
2023-04-01T19:02:38.040Z,59.44
2023-04-01T19:07:46.710Z,59.05
2023-04-01T19:13:04.440Z,59.19
2023-04-01T19:18:28.015Z,59.29
2023-04-01T19:24:23.497Z,58.49
2023-04-01T19:29:42.801Z,58.84
2023-04-01T19:34:58.842Z,59.19
2023-04-01T19:40:19.162Z,58.94
2023-04-01T19:45:36.560Z,58.98
2023-04-01T19:50:45.716Z,59.05
2023-04-01T19:55:59.039Z,59.54
2023-04-01T20:01:06.449Z,59.64
2023-04-01T20:06:20.001Z,59.95
2023-04-01T20:11:46.699Z,60.04
2023-04-01T20:17:01.327Z,61.04
2023-04-01T20:22:12.506Z,61.58
2023-04-01T20:27:23.451Z,62.19
2023-04-01T20:32:52.424Z,61.64
2023-04-01T20:38:11.592Z,62.14
2023-04-01T20:43:37.817Z,62.19
2023-04-01T20:49:13.759Z,62.29
2023-04-01T20:54:31.531Z,62.38
2023-04-01T20:59:52.468Z,61.87
2023-04-01T21:05:28.713Z,61.61
2023-04-01T21:10:41.921Z,61.96
2023-04-01T21:16:00.794Z,62.14
2023-04-01T21:21:31.594Z,61.58
2023-04-01T21:26:50.569Z,61.61
2023-04-01T21:32:12.172Z,61.53
2023-04-01T21:37:38.984Z,61.60
2023-04-01T21:42:50.059Z,61.75
2023-04-01T21:48:30.743Z,61.29
2023-04-01T21:54:08.819Z,61.33
2023-04-01T21:59:50.821Z,62.79
2023-04-01T22:05:04.316Z,62.90
2023-04-01T22:10:21.683Z,62.97
2023-04-01T22:15:33.503Z,62.65
2023-04-01T22:20:46.516Z,62.56
2023-04-01T22:25:58.184Z,62.42
2023-04-01T22:31:04.867Z,62.64
2023-04-01T22:36:19.566Z,61.81
2023-04-01T22:41:34.573Z,62.59
2023-04-01T22:46:53.390Z,61.92
2023-04-01T22:52:02.675Z,62.29
2023-04-01T22:57:10.699Z,62.36
2023-04-01T23:02:20.627Z,62.32
2023-04-01T23:07:47.839Z,62.21
2023-04-01T23:12:56.209Z,62.44
2023-04-01T23:18:14.752Z,62.27
2023-04-01T23:23:30.678Z,62.26
2023-04-01T23:28:46.281Z,62.48
2023-04-01T23:33:56.097Z,62.08
2023-04-01T23:39:20.333Z,62.18
2023-04-01T23:44:27.512Z,62.95
2023-04-01T23:49:36.994Z,62.50
2023-04-01T23:54:46.206Z,62.13
